createdAt,value
2023-03-06T00:00:38.439Z,6.32
2023-03-06T00:02:12.280Z,5.97
2023-03-06T00:02:59.331Z,5.80
2023-03-06T00:03:46.364Z,6.47
2023-03-06T00:04:33.314Z,6.20
2023-03-06T00:05:20.363Z,6.65
2023-03-06T00:06:07.717Z,6.03
2023-03-06T00:06:54.992Z,6.10
2023-03-06T00:07:42.612Z,5.70
2023-03-06T00:08:29.965Z,5.60
2023-03-06T00:09:16.940Z,6.80
2023-03-06T00:10:04.346Z,5.90
2023-03-06T00:10:52.379Z,6.18
2023-03-06T00:11:39.332Z,5.80
2023-03-06T00:12:27.921Z,6.47
2023-03-06T00:13:16.645Z,5.93
2023-03-06T00:14:03.701Z,5.80
2023-03-06T00:14:50.668Z,6.22
2023-03-06T00:15:37.679Z,6.37
2023-03-06T00:16:25.175Z,5.87
2023-03-06T00:17:12.272Z,6.00
2023-03-06T00:17:59.841Z,6.28
2023-03-06T00:18:48.030Z,6.37
2023-03-06T00:19:35.120Z,6.70
2023-03-06T00:20:23.165Z,6.18
2023-03-06T00:21:10.271Z,6.80
2023-03-06T00:21:57.572Z,5.93
2023-03-06T00:22:45.849Z,6.87
2023-03-06T00:23:32.945Z,6.55
2023-03-06T00:24:20.127Z,6.00
2023-03-06T00:25:08.580Z,6.62
2023-03-06T00:25:55.620Z,5.60
2023-03-06T00:26:43.461Z,5.90
2023-03-06T00:27:31.534Z,6.47
2023-03-06T00:28:18.560Z,6.00
2023-03-06T00:29:05.807Z,6.37
2023-03-06T00:29:56.892Z,6.15
2023-03-06T00:30:44.801Z,5.95
2023-03-06T00:31:31.849Z,6.43
2023-03-06T00:32:18.871Z,6.07
2023-03-06T00:33:06.049Z,6.32
2023-03-06T00:33:53.098Z,5.72
2023-03-06T00:34:40.165Z,6.50
2023-03-06T00:35:27.219Z,5.60
2023-03-06T00:36:14.241Z,5.78
2023-03-06T00:37:01.297Z,6.35
2023-03-06T00:37:48.565Z,5.90
2023-03-06T00:38:37.440Z,6.22
2023-03-06T00:39:24.667Z,5.62
2023-03-06T00:40:14.955Z,5.80
2023-03-06T00:41:12.494Z,6.30
2023-03-06T00:41:59.516Z,5.65
2023-03-06T00:42:46.969Z,6.30
2023-03-06T00:43:33.966Z,5.70
2023-03-06T00:44:21.046Z,6.32
2023-03-06T00:45:09.254Z,6.28
2023-03-06T00:45:56.366Z,5.87
2023-03-06T00:46:43.604Z,6.53
2023-03-06T00:47:30.594Z,6.20
2023-03-06T00:48:17.597Z,5.93
2023-03-06T00:49:04.614Z,6.05
2023-03-06T00:49:51.709Z,5.82
2023-03-06T00:50:38.710Z,6.22
2023-03-06T00:51:25.804Z,5.87
2023-03-06T00:52:13.677Z,6.80
2023-03-06T00:53:00.698Z,5.93
2023-03-06T00:53:48.318Z,6.05
2023-03-06T00:54:35.334Z,6.60
2023-03-06T00:55:22.410Z,6.57
2023-03-06T00:56:09.491Z,5.93
2023-03-06T00:56:56.644Z,6.10
2023-03-06T00:57:43.703Z,6.22
2023-03-06T00:58:30.642Z,6.22
2023-03-06T00:59:17.651Z,6.37
2023-03-06T01:00:06.128Z,6.20
2023-03-06T01:00:53.677Z,6.12
2023-03-06T01:01:40.794Z,5.97
2023-03-06T01:02:28.041Z,6.15
2023-03-06T01:03:15.108Z,5.95
2023-03-06T01:04:02.197Z,6.10
2023-03-06T01:04:49.207Z,6.15
2023-03-06T01:05:37.868Z,6.15
2023-03-06T01:06:25.040Z,6.25
2023-03-06T01:07:12.148Z,6.10
2023-03-06T01:07:59.196Z,6.00
2023-03-06T01:08:46.426Z,6.18
2023-03-06T01:09:33.356Z,6.20
2023-03-06T01:10:20.738Z,5.90
2023-03-06T01:11:07.673Z,5.50
2023-03-06T01:11:54.804Z,6.03
2023-03-06T01:12:41.846Z,5.62
2023-03-06T01:13:29.052Z,6.45
2023-03-06T01:14:16.072Z,5.85
2023-03-06T01:15:03.569Z,6.30
2023-03-06T01:15:50.624Z,6.62
2023-03-06T01:16:37.611Z,6.37
2023-03-06T01:17:24.655Z,6.43
2023-03-06T01:18:11.729Z,6.35
2023-03-06T01:18:58.983Z,6.60
2023-03-06T01:19:46.094Z,5.78
2023-03-06T01:20:33.111Z,6.40
2023-03-06T01:21:20.341Z,6.12
2023-03-06T01:22:07.366Z,6.03
2023-03-06T01:22:55.807Z,6.37
2023-03-06T01:23:43.256Z,6.15
2023-03-06T01:24:30.198Z,5.72
2023-03-06T01:25:17.398Z,6.62
2023-03-06T01:26:04.791Z,6.53
2023-03-06T01:26:52.072Z,6.82
2023-03-06T01:27:39.091Z,6.90
2023-03-06T01:28:26.148Z,6.35
2023-03-06T01:29:13.149Z,6.20
2023-03-06T01:30:00.317Z,6.18
2023-03-06T01:30:47.329Z,6.30
2023-03-06T01:31:34.419Z,6.28
2023-03-06T01:32:22.265Z,5.85
2023-03-06T01:33:09.380Z,5.85
2023-03-06T01:33:56.319Z,6.28
2023-03-06T01:34:43.357Z,5.95
2023-03-06T01:35:30.353Z,6.70
2023-03-06T01:36:17.433Z,5.60
2023-03-06T01:37:04.412Z,6.12
2023-03-06T01:37:51.453Z,6.40
2023-03-06T01:38:38.887Z,6.05
2023-03-06T01:39:25.918Z,6.68
2023-03-06T01:40:13.614Z,5.80
2023-03-06T01:41:01.681Z,6.00
2023-03-06T01:41:48.691Z,6.10
2023-03-06T01:42:35.748Z,6.80
2023-03-06T01:43:28.167Z,7.10
2023-03-06T01:44:15.459Z,6.55
2023-03-06T01:45:13.201Z,5.82
2023-03-06T01:46:39.074Z,6.20
2023-03-06T01:47:26.205Z,6.00
2023-03-06T01:48:13.211Z,6.50
2023-03-06T01:49:13.680Z,5.35
2023-03-06T01:50:04.058Z,6.35
2023-03-06T01:50:51.765Z,6.82
2023-03-06T01:51:51.798Z,6.25
2023-03-06T01:52:58.897Z,6.47
2023-03-06T01:53:46.643Z,5.90
2023-03-06T01:54:37.934Z,6.00
2023-03-06T01:55:33.901Z,6.47
2023-03-06T01:56:21.276Z,6.10
2023-03-06T01:57:15.484Z,6.57
2023-03-06T01:58:06.169Z,6.18
2023-03-06T01:59:41.177Z,6.03
2023-03-06T02:00:29.252Z,6.35
2023-03-06T02:01:16.629Z,6.12
2023-03-06T02:02:04.601Z,6.60
2023-03-06T02:02:57.679Z,6.10
2023-03-06T02:03:47.548Z,6.20
2023-03-06T02:04:35.857Z,6.53
2023-03-06T02:05:22.972Z,5.72
2023-03-06T02:06:10.018Z,6.18
2023-03-06T02:07:02.274Z,6.45
2023-03-06T02:07:50.876Z,6.12
2023-03-06T02:08:37.829Z,6.30
2023-03-06T02:09:26.322Z,6.68
2023-03-06T02:10:13.606Z,7.25
2023-03-06T02:11:17.325Z,6.87
2023-03-06T02:12:12.243Z,6.93
2023-03-06T02:12:59.353Z,6.18
2023-03-06T02:13:46.974Z,5.85
2023-03-06T02:14:33.998Z,5.72
2023-03-06T02:15:23.039Z,6.62
2023-03-06T02:16:11.120Z,6.28
2023-03-06T02:16:58.235Z,5.97
2023-03-06T02:17:46.622Z,6.37
2023-03-06T02:18:34.680Z,6.03
2023-03-06T02:19:33.592Z,6.43
2023-03-06T02:20:32.101Z,5.50
2023-03-06T02:21:24.135Z,6.10
2023-03-06T02:22:11.255Z,6.55
2023-03-06T02:23:11.772Z,5.82
2023-03-06T02:24:17.369Z,6.40
2023-03-06T02:25:30.348Z,6.87
2023-03-06T02:26:17.543Z,6.70
2023-03-06T02:27:06.001Z,6.15
2023-03-06T02:27:53.003Z,5.72
2023-03-06T02:28:40.312Z,6.15
2023-03-06T02:29:29.198Z,6.07
2023-03-06T02:30:17.606Z,6.78
2023-03-06T02:31:04.702Z,6.10
2023-03-06T02:31:51.823Z,5.90
2023-03-06T02:32:38.851Z,6.32
2023-03-06T02:33:28.900Z,6.28
2023-03-06T02:34:15.772Z,6.78
2023-03-06T02:35:02.772Z,6.87
2023-03-06T02:36:07.280Z,6.53
2023-03-06T02:37:09.043Z,6.45
2023-03-06T02:37:58.116Z,6.55
2023-03-06T02:38:49.372Z,6.50
2023-03-06T02:39:41.121Z,6.40
2023-03-06T02:40:28.435Z,6.80
2023-03-06T02:41:16.252Z,6.15
2023-03-06T02:42:03.282Z,6.37
2023-03-06T02:42:56.730Z,6.80
2023-03-06T02:43:45.986Z,7.03
2023-03-06T02:44:34.239Z,5.78
2023-03-06T02:45:26.295Z,6.32
2023-03-06T02:46:13.483Z,6.47
2023-03-06T02:47:00.734Z,6.78
2023-03-06T02:47:47.727Z,6.95
2023-03-06T02:48:34.960Z,5.90
2023-03-06T02:49:21.864Z,6.50
2023-03-06T02:50:10.284Z,6.28
2023-03-06T02:50:57.469Z,6.30
2023-03-06T02:51:44.877Z,6.62
2023-03-06T02:52:31.842Z,6.37
2023-03-06T02:53:20.723Z,7.07
2023-03-06T02:54:07.730Z,7.00
2023-03-06T02:54:54.715Z,6.00
2023-03-06T02:55:41.790Z,6.22
2023-03-06T02:56:28.714Z,6.68
2023-03-06T02:57:15.797Z,6.45
2023-03-06T02:58:03.830Z,5.97
2023-03-06T02:58:50.837Z,6.78
2023-03-06T02:59:37.886Z,6.70
2023-03-06T03:00:25.008Z,7.10
2023-03-06T03:01:12.077Z,7.28
2023-03-06T03:01:59.275Z,6.87
2023-03-06T03:02:46.203Z,7.18
2023-03-06T03:03:33.669Z,6.53
2023-03-06T03:04:20.754Z,6.62
2023-03-06T03:05:08.170Z,6.82
2023-03-06T03:05:55.187Z,7.10
2023-03-06T03:06:42.177Z,7.00
2023-03-06T03:07:29.120Z,7.37
2023-03-06T03:08:16.375Z,7.47
2023-03-06T03:09:03.511Z,7.28
2023-03-06T03:09:50.590Z,7.20
2023-03-06T03:10:37.592Z,6.55
2023-03-06T03:11:24.646Z,6.93
2023-03-06T03:12:11.591Z,7.20
2023-03-06T03:12:58.951Z,7.50
2023-03-06T03:13:45.910Z,7.70
2023-03-06T03:14:33.010Z,7.65
2023-03-06T03:15:20.001Z,8.07
2023-03-06T03:16:09.378Z,7.30
2023-03-06T03:16:56.426Z,6.35
2023-03-06T03:17:43.832Z,7.50
2023-03-06T03:18:30.920Z,7.82
2023-03-06T03:19:17.971Z,7.65
2023-03-06T03:20:06.997Z,6.97
2023-03-06T03:20:54.424Z,7.07
2023-03-06T03:21:41.815Z,6.90
2023-03-06T03:22:28.885Z,7.85
2023-03-06T03:23:15.835Z,6.80
2023-03-06T03:24:02.802Z,7.57
2023-03-06T03:24:50.165Z,8.65
2023-03-06T03:25:37.276Z,7.55
2023-03-06T03:26:24.238Z,8.13
2023-03-06T03:27:11.615Z,8.27
2023-03-06T03:27:58.634Z,8.00
2023-03-06T03:28:45.841Z,8.02
2023-03-06T03:29:33.062Z,6.80
2023-03-06T03:30:20.238Z,7.22
2023-03-06T03:31:09.035Z,7.85
2023-03-06T03:31:56.188Z,7.80
2023-03-06T03:32:43.449Z,7.85
2023-03-06T03:33:30.555Z,7.78
2023-03-06T03:34:19.167Z,8.32
2023-03-06T03:35:08.021Z,8.18
2023-03-06T03:35:59.203Z,7.78
2023-03-06T03:36:47.041Z,7.85
2023-03-06T03:37:35.124Z,7.00
2023-03-06T03:38:22.174Z,8.20
2023-03-06T03:39:09.299Z,7.60
2023-03-06T03:39:57.847Z,7.72
2023-03-06T03:40:44.905Z,7.65
2023-03-06T03:41:34.360Z,9.00
2023-03-06T03:42:21.391Z,7.87
2023-03-06T03:43:08.286Z,8.35
2023-03-06T03:43:55.342Z,8.38
2023-03-06T03:44:42.368Z,7.72
2023-03-06T03:45:29.321Z,8.00
2023-03-06T03:46:16.301Z,8.00
2023-03-06T03:47:03.339Z,7.93
2023-03-06T03:47:50.398Z,7.37
2023-03-06T03:48:37.354Z,7.95
2023-03-06T03:49:24.421Z,8.18
2023-03-06T03:50:12.047Z,8.65
2023-03-06T03:51:08.929Z,7.90
2023-03-06T03:51:55.980Z,7.35
2023-03-06T03:52:42.990Z,7.62
2023-03-06T03:53:30.091Z,7.85
2023-03-06T03:54:17.308Z,8.20
2023-03-06T03:55:05.385Z,7.43
2023-03-06T03:55:52.477Z,8.07
2023-03-06T03:56:40.950Z,7.70
2023-03-06T03:57:27.925Z,7.72
2023-03-06T03:58:14.795Z,7.68
2023-03-06T03:59:01.848Z,8.10
2023-03-06T03:59:48.936Z,7.80
2023-03-06T04:00:35.876Z,7.40
2023-03-06T04:01:22.978Z,8.00
2023-03-06T04:02:09.943Z,8.10
2023-03-06T04:02:57.084Z,7.60
2023-03-06T04:03:44.157Z,8.25
2023-03-06T04:04:31.318Z,7.68
2023-03-06T04:05:18.720Z,7.85
2023-03-06T04:06:06.002Z,8.35
2023-03-06T04:06:52.966Z,7.70
2023-03-06T04:07:39.917Z,8.25
2023-03-06T04:08:27.577Z,7.78
2023-03-06T04:09:14.634Z,7.82
2023-03-06T04:10:01.688Z,7.47
2023-03-06T04:10:48.681Z,7.85
2023-03-06T04:11:35.732Z,7.72
2023-03-06T04:12:22.737Z,8.10
2023-03-06T04:13:10.260Z,8.15
2023-03-06T04:13:57.625Z,7.75
2023-03-06T04:14:44.726Z,8.55
2023-03-06T04:15:32.437Z,8.88
2023-03-06T04:16:19.510Z,8.13
2023-03-06T04:17:06.504Z,8.40
2023-03-06T04:17:53.520Z,9.40
2023-03-06T04:18:40.605Z,8.90
2023-03-06T04:19:28.056Z,8.07
2023-03-06T04:20:15.193Z,8.35
2023-03-06T04:21:02.308Z,9.02
2023-03-06T04:21:49.414Z,8.82
2023-03-06T04:22:36.394Z,8.52
2023-03-06T04:23:24.564Z,8.35
2023-03-06T04:24:11.586Z,8.50
2023-03-06T04:24:58.505Z,9.10
2023-03-06T04:25:46.234Z,8.65
2023-03-06T04:26:33.365Z,8.50
2023-03-06T04:27:20.360Z,9.23
2023-03-06T04:28:07.699Z,8.70
2023-03-06T04:28:56.384Z,9.05
2023-03-06T04:29:43.569Z,8.45
2023-03-06T04:30:30.727Z,9.27
2023-03-06T04:31:17.748Z,8.68
2023-03-06T04:32:05.099Z,8.93
2023-03-06T04:32:52.148Z,8.98
2023-03-06T04:33:39.456Z,9.00
2023-03-06T04:34:26.489Z,8.45
2023-03-06T04:35:13.519Z,8.85
2023-03-06T04:36:00.455Z,8.63
2023-03-06T04:36:47.676Z,8.80
2023-03-06T04:37:34.788Z,8.77
2023-03-06T04:38:21.822Z,7.75
2023-03-06T04:39:08.866Z,8.73
2023-03-06T04:39:55.827Z,8.32
2023-03-06T04:40:44.814Z,8.40
2023-03-06T04:41:32.142Z,8.32
2023-03-06T04:42:19.438Z,7.65
2023-03-06T04:43:06.751Z,8.50
2023-03-06T04:43:54.004Z,8.05
2023-03-06T04:44:40.971Z,7.78
2023-03-06T04:45:29.155Z,7.85
2023-03-06T04:46:16.659Z,8.35
2023-03-06T04:47:03.679Z,7.95
2023-03-06T04:47:50.723Z,8.30
2023-03-06T04:48:37.823Z,7.70
2023-03-06T04:49:24.799Z,8.50
2023-03-06T04:50:12.538Z,8.93
2023-03-06T04:50:59.494Z,8.82
2023-03-06T04:51:46.478Z,9.45
2023-03-06T04:52:33.917Z,8.40
2023-03-06T04:53:22.017Z,8.70
2023-03-06T04:54:09.025Z,9.85
2023-03-06T04:54:56.168Z,8.00
2023-03-06T04:55:43.222Z,8.07
2023-03-06T04:56:30.890Z,8.13
2023-03-06T04:57:18.005Z,8.43
2023-03-06T04:58:05.040Z,7.95
2023-03-06T04:58:52.103Z,8.45
2023-03-06T04:59:39.330Z,8.07
2023-03-06T05:00:36.478Z,8.55
2023-03-06T05:01:23.512Z,8.18
2023-03-06T05:02:10.547Z,8.35
2023-03-06T05:03:01.803Z,8.77
2023-03-06T05:03:50.021Z,7.95
2023-03-06T05:04:37.068Z,8.93
2023-03-06T05:05:24.148Z,8.75
2023-03-06T05:06:11.197Z,8.07
2023-03-06T05:06:58.189Z,8.82
2023-03-06T05:07:45.493Z,9.55
2023-03-06T05:08:32.521Z,8.43
2023-03-06T05:09:19.459Z,8.90
2023-03-06T05:10:07.268Z,8.57
2023-03-06T05:10:57.063Z,7.82
2023-03-06T05:11:43.992Z,8.98
2023-03-06T05:12:31.195Z,8.68
2023-03-06T05:13:18.243Z,9.98
2023-03-06T05:14:05.256Z,8.18
2023-03-06T05:14:52.434Z,8.20
2023-03-06T05:15:42.356Z,7.65
2023-03-06T05:16:29.449Z,7.95
2023-03-06T05:17:16.419Z,8.95
2023-03-06T05:18:03.698Z,8.55
2023-03-06T05:18:50.881Z,9.15
2023-03-06T05:19:38.006Z,7.75
2023-03-06T05:20:25.184Z,8.20
2023-03-06T05:21:12.393Z,8.75
2023-03-06T05:21:59.485Z,8.63
2023-03-06T05:22:46.501Z,9.10
2023-03-06T05:23:36.998Z,8.23
2023-03-06T05:24:24.055Z,8.40
2023-03-06T05:25:11.500Z,8.23
2023-03-06T05:25:58.732Z,8.10
2023-03-06T05:26:45.698Z,8.73
2023-03-06T05:27:32.822Z,8.40
2023-03-06T05:28:19.927Z,9.13
2023-03-06T05:29:07.242Z,8.55
2023-03-06T05:29:54.879Z,8.73
2023-03-06T05:30:41.844Z,7.68
2023-03-06T05:31:29.130Z,8.48
2023-03-06T05:32:17.250Z,8.27
2023-03-06T05:33:04.458Z,8.10
2023-03-06T05:33:51.830Z,8.63
2023-03-06T05:34:40.043Z,8.20
2023-03-06T05:35:27.227Z,8.00
2023-03-06T05:36:14.685Z,8.55
2023-03-06T05:37:02.097Z,7.90
2023-03-06T05:37:49.145Z,8.60
2023-03-06T05:38:36.333Z,8.27
2023-03-06T05:39:23.428Z,8.98
2023-03-06T05:40:11.522Z,8.65
2023-03-06T05:40:58.559Z,9.38
2023-03-06T05:41:45.603Z,8.77
2023-03-06T05:42:32.569Z,8.98
2023-03-06T05:43:20.020Z,9.43
2023-03-06T05:44:07.287Z,9.63
2023-03-06T05:44:54.324Z,8.90
2023-03-06T05:45:41.423Z,8.68
2023-03-06T05:46:28.424Z,9.25
2023-03-06T05:47:15.436Z,10.07
2023-03-06T05:48:02.689Z,9.18
2023-03-06T05:48:50.634Z,8.43
2023-03-06T05:49:38.085Z,9.05
2023-03-06T05:50:25.216Z,8.88
2023-03-06T05:51:12.333Z,8.55
2023-03-06T05:51:59.412Z,8.77
2023-03-06T05:52:46.424Z,8.32
2023-03-06T05:53:33.714Z,8.82
2023-03-06T05:54:21.535Z,9.10
2023-03-06T05:55:10.574Z,8.13
2023-03-06T05:55:59.160Z,8.98
2023-03-06T05:56:46.186Z,8.40
2023-03-06T05:57:33.251Z,8.52
2023-03-06T05:58:20.318Z,8.43
2023-03-06T05:59:07.367Z,7.80
2023-03-06T05:59:54.496Z,8.38
2023-03-06T06:00:41.672Z,8.95
2023-03-06T06:01:28.789Z,8.95
2023-03-06T06:02:16.556Z,8.52
2023-03-06T06:03:05.033Z,8.73
2023-03-06T06:03:52.419Z,8.63
2023-03-06T06:04:39.483Z,8.35
2023-03-06T06:05:26.473Z,8.05
2023-03-06T06:06:14.849Z,8.15
2023-03-06T06:07:01.930Z,8.88
2023-03-06T06:07:48.989Z,8.55
2023-03-06T06:08:36.010Z,9.25
2023-03-06T06:09:24.242Z,7.95
2023-03-06T06:10:12.326Z,8.90
2023-03-06T06:10:59.354Z,8.18
2023-03-06T06:11:46.488Z,8.55
2023-03-06T06:12:33.784Z,8.40
2023-03-06T06:13:20.740Z,8.07
2023-03-06T06:14:07.696Z,8.75
2023-03-06T06:14:54.818Z,9.32
2023-03-06T06:15:41.940Z,8.55
2023-03-06T06:16:28.955Z,8.43
2023-03-06T06:17:16.969Z,7.75
2023-03-06T06:18:04.161Z,8.93
2023-03-06T06:18:51.147Z,8.85
2023-03-06T06:19:38.456Z,9.68
2023-03-06T06:21:14.799Z,8.70
2023-03-06T06:22:04.984Z,9.25
2023-03-06T06:22:51.994Z,8.73
2023-03-06T06:23:38.913Z,8.48
2023-03-06T06:24:27.289Z,9.50
2023-03-06T06:25:14.361Z,9.07
2023-03-06T06:26:05.684Z,8.38
2023-03-06T06:26:54.954Z,8.70
2023-03-06T06:27:42.074Z,8.30
2023-03-06T06:28:29.888Z,8.38
2023-03-06T06:29:17.042Z,8.35
2023-03-06T06:30:05.711Z,8.18
2023-03-06T06:30:53.127Z,8.18
2023-03-06T06:31:40.553Z,7.65
2023-03-06T06:32:27.741Z,8.98
2023-03-06T06:33:14.722Z,8.60
2023-03-06T06:34:01.674Z,8.40
2023-03-06T06:34:48.659Z,8.68
2023-03-06T06:35:37.427Z,8.25
2023-03-06T06:36:24.499Z,8.20
2023-03-06T06:37:11.960Z,8.23
2023-03-06T06:37:59.073Z,8.00
2023-03-06T06:38:46.760Z,9.02
2023-03-06T06:39:34.654Z,9.23
2023-03-06T06:40:24.521Z,7.78
2023-03-06T06:41:38.897Z,9.00
2023-03-06T06:42:31.990Z,8.73
2023-03-06T06:43:22.204Z,8.05
2023-03-06T06:44:14.666Z,8.70
2023-03-06T06:45:01.673Z,8.98
2023-03-06T06:45:49.623Z,8.50
2023-03-06T06:47:20.929Z,8.60
2023-03-06T06:47:44.805Z,8.65
2023-03-06T06:48:31.943Z,9.02
2023-03-06T06:49:19.042Z,8.23
2023-03-06T06:50:06.693Z,8.88
2023-03-06T06:51:00.332Z,9.15
2023-03-06T06:51:47.511Z,8.30
2023-03-06T06:52:34.703Z,8.80
2023-03-06T06:53:21.706Z,8.60
2023-03-06T06:54:08.981Z,9.55
2023-03-06T06:54:56.058Z,8.48
2023-03-06T06:55:43.308Z,9.43
2023-03-06T06:56:30.429Z,9.05
2023-03-06T06:57:17.673Z,9.77
2023-03-06T06:58:04.807Z,9.70
2023-03-06T06:59:01.352Z,9.20
2023-03-06T06:59:57.360Z,8.57
2023-03-06T07:00:44.478Z,9.00
2023-03-06T07:01:31.567Z,9.15
2023-03-06T07:02:18.791Z,9.07
2023-03-06T07:03:05.834Z,9.30
2023-03-06T07:03:53.056Z,9.50
2023-03-06T07:04:52.214Z,9.57
2023-03-06T07:05:43.523Z,9.43
2023-03-06T07:06:30.758Z,9.32
2023-03-06T07:07:17.844Z,9.32
2023-03-06T07:08:04.876Z,9.65
2023-03-06T07:08:52.168Z,9.40
2023-03-06T07:09:40.395Z,8.73
2023-03-06T07:10:27.356Z,9.70
2023-03-06T07:11:17.754Z,9.70
2023-03-06T07:12:04.889Z,8.90
2023-03-06T07:12:51.767Z,9.07
2023-03-06T07:13:38.853Z,9.27
2023-03-06T07:14:25.916Z,9.00
2023-03-06T07:15:15.274Z,8.40
2023-03-06T07:16:02.512Z,8.85
2023-03-06T07:16:49.495Z,8.63
2023-03-06T07:17:36.502Z,8.73
2023-03-06T07:18:23.393Z,9.20
2023-03-06T07:19:10.335Z,9.60
2023-03-06T07:19:57.373Z,9.32
2023-03-06T07:20:44.263Z,9.15
2023-03-06T07:21:31.250Z,9.50
2023-03-06T07:22:18.148Z,8.95
2023-03-06T07:23:08.614Z,9.27
2023-03-06T07:23:57.697Z,10.27
2023-03-06T07:24:44.647Z,9.48
2023-03-06T07:25:31.586Z,9.85
2023-03-06T07:26:18.482Z,9.93
2023-03-06T07:27:05.437Z,9.48
2023-03-06T07:27:54.591Z,9.57
2023-03-06T07:28:52.438Z,9.27
2023-03-06T07:29:39.698Z,9.88
2023-03-06T07:30:26.558Z,10.15
2023-03-06T07:31:13.528Z,9.13
2023-03-06T07:32:00.643Z,9.57
2023-03-06T07:32:47.650Z,9.77
2023-03-06T07:33:34.570Z,9.52
2023-03-06T07:34:21.493Z,10.02
2023-03-06T07:35:19.817Z,10.25
2023-03-06T07:36:12.744Z,11.25
2023-03-06T07:36:59.795Z,10.60
2023-03-06T07:37:46.779Z,11.20
2023-03-06T07:38:33.872Z,10.35
2023-03-06T07:39:20.809Z,10.43
2023-03-06T07:40:09.718Z,10.75
2023-03-06T07:40:56.551Z,10.20
2023-03-06T07:41:43.443Z,10.43
2023-03-06T07:42:30.318Z,11.50
2023-03-06T07:43:19.610Z,10.23
2023-03-06T07:44:07.654Z,10.50
2023-03-06T07:44:54.559Z,11.07
2023-03-06T07:45:43.478Z,10.40
2023-03-06T07:46:30.491Z,11.32
2023-03-06T07:47:17.396Z,11.05
2023-03-06T07:48:05.622Z,10.25
2023-03-06T07:48:53.412Z,10.52
2023-03-06T07:49:40.346Z,10.35
2023-03-06T07:50:27.341Z,10.40
2023-03-06T07:51:16.724Z,10.48
2023-03-06T07:52:03.799Z,9.80
2023-03-06T07:52:51.450Z,10.07
2023-03-06T07:53:38.400Z,9.32
2023-03-06T07:54:25.517Z,9.77
2023-03-06T07:55:13.042Z,9.10
2023-03-06T07:56:00.134Z,9.32
2023-03-06T07:56:50.704Z,9.98
2023-03-06T07:57:38.692Z,11.10
2023-03-06T07:58:26.442Z,9.95
2023-03-06T07:59:13.330Z,9.68
2023-03-06T08:00:00.259Z,9.10
2023-03-06T08:00:47.416Z,9.82
2023-03-06T08:01:34.363Z,9.63
2023-03-06T08:02:23.362Z,8.88
2023-03-06T08:03:12.046Z,8.43
2023-03-06T08:03:59.644Z,9.52
2023-03-06T08:04:53.681Z,9.20
2023-03-06T08:05:40.964Z,10.48
2023-03-06T08:06:28.598Z,9.88
2023-03-06T08:07:15.532Z,9.57
2023-03-06T08:08:02.442Z,9.60
2023-03-06T08:08:50.578Z,8.18
2023-03-06T08:09:37.444Z,9.73
2023-03-06T08:10:24.315Z,10.00
2023-03-06T08:11:12.890Z,9.63
2023-03-06T08:11:59.784Z,8.80
2023-03-06T08:12:46.724Z,8.45
2023-03-06T08:13:35.756Z,10.02
2023-03-06T08:14:22.796Z,8.82
2023-03-06T08:15:11.613Z,10.50
2023-03-06T08:16:00.001Z,9.77
2023-03-06T08:16:47.038Z,9.82
2023-03-06T08:17:33.926Z,9.38
2023-03-06T08:18:20.793Z,9.98
2023-03-06T08:19:07.898Z,9.90
2023-03-06T08:19:54.783Z,9.65
2023-03-06T08:20:41.670Z,9.43
2023-03-06T08:21:29.355Z,9.95
2023-03-06T08:22:16.257Z,10.23
2023-03-06T08:23:03.093Z,10.10
2023-03-06T08:23:50.818Z,9.27
2023-03-06T08:24:38.056Z,8.88
2023-03-06T08:25:25.857Z,9.40
2023-03-06T08:26:15.743Z,9.80
2023-03-06T08:27:02.754Z,9.25
2023-03-06T08:27:49.774Z,9.90
2023-03-06T08:28:36.653Z,9.43
2023-03-06T08:29:23.516Z,10.00
2023-03-06T08:30:11.062Z,8.98
2023-03-06T08:30:58.681Z,8.70
2023-03-06T08:31:46.612Z,8.65
2023-03-06T08:32:38.762Z,9.40
2023-03-06T08:33:25.831Z,8.68
2023-03-06T08:34:15.404Z,9.73
2023-03-06T08:35:04.086Z,8.90
2023-03-06T08:35:51.442Z,8.82
2023-03-06T08:36:38.805Z,9.60
2023-03-06T08:37:25.816Z,9.43
2023-03-06T08:38:12.701Z,9.98
2023-03-06T08:38:59.977Z,8.98
2023-03-06T08:39:46.897Z,9.25
2023-03-06T08:40:34.020Z,10.35
2023-03-06T08:41:21.615Z,9.57
2023-03-06T08:42:10.476Z,10.52
2023-03-06T08:42:57.897Z,10.00
2023-03-06T08:43:44.912Z,10.75
2023-03-06T08:44:31.842Z,9.38
2023-03-06T08:45:18.723Z,9.40
2023-03-06T08:46:05.751Z,8.98
2023-03-06T08:46:54.827Z,9.20
2023-03-06T08:47:41.733Z,10.00
2023-03-06T08:48:28.638Z,9.38
2023-03-06T08:49:15.608Z,10.23
2023-03-06T08:50:02.555Z,10.35
2023-03-06T08:50:49.654Z,9.73
2023-03-06T08:51:36.633Z,8.60
2023-03-06T08:52:23.509Z,9.77
2023-03-06T08:53:10.881Z,9.68
2023-03-06T08:53:58.290Z,9.35
2023-03-06T08:54:45.206Z,9.95
2023-03-06T08:55:32.050Z,9.75
2023-03-06T08:56:20.273Z,10.95
2023-03-06T08:57:07.206Z,9.30
2023-03-06T08:57:54.572Z,10.23
2023-03-06T08:58:41.409Z,9.90
2023-03-06T08:59:28.281Z,9.27
2023-03-06T09:00:15.605Z,9.63
2023-03-06T09:01:05.532Z,9.32
2023-03-06T09:01:52.601Z,10.65
2023-03-06T09:02:40.035Z,9.80
2023-03-06T09:03:27.082Z,9.48
2023-03-06T09:04:14.237Z,10.00
2023-03-06T09:05:01.635Z,9.45
2023-03-06T09:05:48.757Z,9.88
2023-03-06T09:06:38.760Z,9.93
2023-03-06T09:07:25.806Z,9.77
2023-03-06T09:08:12.761Z,9.80
2023-03-06T09:09:00.017Z,9.23
2023-03-06T09:09:46.974Z,10.93
2023-03-06T09:10:34.411Z,10.95
2023-03-06T09:11:23.029Z,11.05
2023-03-06T09:12:09.912Z,10.38
2023-03-06T09:12:56.935Z,10.35
2023-03-06T09:13:44.198Z,9.85
2023-03-06T09:14:32.995Z,9.95
2023-03-06T09:15:21.159Z,9.80
2023-03-06T09:16:09.799Z,9.57
2023-03-06T09:16:56.754Z,10.57
2023-03-06T09:17:43.790Z,9.23
2023-03-06T09:18:30.850Z,10.05
2023-03-06T09:19:18.034Z,9.80
2023-03-06T09:20:10.560Z,9.38
2023-03-06T09:20:57.600Z,9.23
2023-03-06T09:21:44.610Z,9.35
2023-03-06T09:22:32.321Z,8.95
2023-03-06T09:23:19.251Z,8.40
2023-03-06T09:24:06.421Z,9.52
2023-03-06T09:24:54.286Z,8.75
2023-03-06T09:25:41.197Z,9.82
2023-03-06T09:26:43.331Z,8.77
2023-03-06T09:27:31.945Z,9.35
2023-03-06T09:28:18.828Z,9.50
2023-03-06T09:29:05.654Z,8.43
2023-03-06T09:29:52.470Z,9.20
2023-03-06T09:30:41.235Z,9.48
2023-03-06T09:31:28.597Z,9.02
2023-03-06T09:32:15.528Z,8.98
2023-03-06T09:33:02.468Z,9.50
2023-03-06T09:33:49.392Z,10.30
2023-03-06T09:34:36.294Z,9.23
2023-03-06T09:35:23.359Z,10.50
2023-03-06T09:36:17.314Z,10.07
2023-03-06T09:37:04.255Z,10.20
2023-03-06T09:37:51.154Z,9.57
2023-03-06T09:38:38.023Z,9.65
2023-03-06T09:39:26.387Z,10.73
2023-03-06T09:40:30.906Z,9.35
2023-03-06T09:41:31.147Z,9.48
2023-03-06T09:42:20.799Z,10.88
2023-03-06T09:43:13.834Z,9.57
2023-03-06T09:44:05.179Z,10.40
2023-03-06T09:44:55.513Z,9.25
2023-03-06T09:45:42.536Z,9.10
2023-03-06T09:46:40.617Z,9.60
2023-03-06T09:47:42.777Z,10.18
2023-03-06T09:48:44.538Z,10.02
2023-03-06T09:49:50.519Z,9.13
2023-03-06T09:50:40.173Z,9.93
2023-03-06T09:51:45.413Z,10.70
2023-03-06T09:52:35.317Z,10.25
2023-03-06T09:53:28.413Z,9.50
2023-03-06T09:54:16.256Z,11.12
2023-03-06T09:55:09.850Z,11.18
2023-03-06T09:56:06.525Z,9.88
2023-03-06T09:56:53.474Z,11.10
2023-03-06T09:57:55.329Z,9.93
2023-03-06T09:58:48.304Z,9.85
2023-03-06T09:59:35.303Z,10.98
2023-03-06T10:00:31.274Z,11.70
2023-03-06T10:01:28.226Z,9.88
2023-03-06T10:02:32.179Z,9.95
2023-03-06T10:03:34.312Z,10.93
2023-03-06T10:04:38.534Z,10.27
2023-03-06T10:05:35.958Z,10.35
2023-03-06T10:06:27.204Z,10.40
2023-03-06T10:07:19.316Z,10.50
2023-03-06T10:08:21.934Z,10.75
2023-03-06T10:09:19.307Z,10.20
2023-03-06T10:10:08.490Z,10.93
2023-03-06T10:11:02.172Z,11.18
2023-03-06T10:11:55.199Z,10.90
2023-03-06T10:12:48.510Z,10.30
2023-03-06T10:13:44.516Z,9.95
2023-03-06T10:14:57.111Z,10.07
2023-03-06T10:15:46.603Z,10.18
2023-03-06T10:16:33.682Z,10.30
2023-03-06T10:17:22.771Z,10.32
2023-03-06T10:18:11.297Z,10.82
2023-03-06T10:19:03.619Z,10.95
2023-03-06T10:19:50.998Z,10.90
2023-03-06T10:20:44.491Z,11.35
2023-03-06T10:21:45.871Z,9.63
2023-03-06T10:22:39.086Z,10.35
2023-03-06T10:23:54.889Z,10.35
2023-03-06T10:24:49.562Z,10.23
2023-03-06T10:26:02.240Z,11.07
2023-03-06T10:27:37.836Z,10.68
2023-03-06T10:28:35.430Z,9.65
2023-03-06T10:29:47.554Z,11.00
2023-03-06T10:31:18.058Z,9.80
2023-03-06T10:32:13.310Z,10.40
2023-03-06T10:33:08.098Z,11.05
2023-03-06T10:34:08.337Z,10.52
2023-03-06T10:34:57.855Z,11.30
2023-03-06T10:35:48.930Z,10.73
2023-03-06T10:36:37.910Z,11.10
2023-03-06T10:37:24.945Z,11.55
2023-03-06T10:38:25.201Z,11.77
2023-03-06T10:39:19.781Z,11.57
2023-03-06T10:40:18.845Z,11.05
2023-03-06T10:41:11.781Z,12.30
2023-03-06T10:41:58.821Z,10.68
2023-03-06T10:42:45.659Z,10.50
2023-03-06T10:43:36.020Z,11.80
2023-03-06T10:45:16.414Z,11.05
2023-03-06T10:46:04.064Z,10.82
2023-03-06T10:46:52.851Z,11.48
2023-03-06T10:47:40.516Z,11.15
2023-03-06T10:48:29.592Z,11.60
2023-03-06T10:49:34.134Z,11.18
2023-03-06T10:50:24.905Z,11.93